createdAt,value
2019-02-23T00:02:39.123Z,6.87
2019-02-23T00:05:19.121Z,8.30
2019-02-23T00:07:59.090Z,8.40
2019-02-23T00:10:39.170Z,8.25
2019-02-23T00:13:19.039Z,6.62
2019-02-23T00:15:59.098Z,8.48
2019-02-23T00:18:38.875Z,8.03
2019-02-23T00:21:18.926Z,8.33
2019-02-23T00:23:59.223Z,9.13
2019-02-23T00:26:39.250Z,7.37
2019-02-23T00:29:19.497Z,9.90
2019-02-23T00:31:58.975Z,8.88
2019-02-23T00:34:38.468Z,7.90
2019-02-23T00:37:18.388Z,8.73
2019-02-23T00:39:58.749Z,8.93
2019-02-23T00:42:39.279Z,10.35
2019-02-23T00:45:18.927Z,10.32
2019-02-23T00:48:00.353Z,9.03
2019-02-23T00:50:40.597Z,9.23
2019-02-23T00:53:20.726Z,9.23
2019-02-23T00:56:00.531Z,11.10
2019-02-23T00:58:40.947Z,9.60
2019-02-23T01:01:21.033Z,9.15
2019-02-23T01:07:08.262Z,9.35
2019-02-23T01:09:47.708Z,9.70
2019-02-23T01:12:28.536Z,10.05
2019-02-23T01:15:08.099Z,9.80
2019-02-23T01:17:48.371Z,9.98
2019-02-23T01:20:28.271Z,9.98
2019-02-23T01:23:08.318Z,10.68
2019-02-23T01:25:48.322Z,9.55
2019-02-23T01:31:17.734Z,9.18
2019-02-23T01:33:57.834Z,10.23
2019-02-23T01:36:37.724Z,10.10
2019-02-23T01:39:21.144Z,9.40
2019-02-23T01:42:01.184Z,8.63
2019-02-23T01:44:41.310Z,8.75
2019-02-23T01:53:21.146Z,10.58
2019-02-23T01:56:01.034Z,8.95
2019-02-23T02:01:37.305Z,8.83
2019-02-23T02:04:17.594Z,9.33
2019-02-23T02:06:57.562Z,9.88
2019-02-23T02:09:37.748Z,9.10
2019-02-23T02:12:18.568Z,9.10
2019-02-23T02:14:58.017Z,10.85
2019-02-23T02:17:38.119Z,8.95
2019-02-23T02:20:18.130Z,9.43
2019-02-23T02:22:58.316Z,9.50
2019-02-23T02:25:38.668Z,9.08
2019-02-23T02:34:14.451Z,9.40
2019-02-23T02:36:54.445Z,9.35
2019-02-23T02:39:35.020Z,9.28
2019-02-23T02:42:14.979Z,9.85
2019-02-23T02:44:54.809Z,10.60
2019-02-23T02:47:34.657Z,8.05
2019-02-23T02:50:23.819Z,8.53
2019-02-23T02:52:56.883Z,7.67
2019-02-23T02:55:34.966Z,9.68
2019-02-23T03:01:20.465Z,9.23
2019-02-23T03:04:00.696Z,9.13
2019-02-23T03:06:41.197Z,8.30
2019-02-23T03:09:20.909Z,9.70
2019-02-23T03:12:01.135Z,8.50
2019-02-23T03:14:41.143Z,9.03
2019-02-23T03:17:21.077Z,10.25
2019-02-23T03:20:01.171Z,8.58
2019-02-23T03:22:41.449Z,10.35
2019-02-23T03:25:21.433Z,9.20
2019-02-23T03:28:01.178Z,9.35
2019-02-23T03:30:41.265Z,10.18
2019-02-23T03:33:21.155Z,8.80
2019-02-23T03:36:01.375Z,8.95
2019-02-23T03:38:41.976Z,8.95
2019-02-23T03:41:21.380Z,10.30
2019-02-23T03:44:00.784Z,10.15
2019-02-23T03:46:41.154Z,10.40
2019-02-23T03:49:21.369Z,10.30
2019-02-23T03:52:01.621Z,9.75
2019-02-23T03:54:41.910Z,9.83
2019-02-23T03:57:21.930Z,9.13
2019-02-23T04:00:01.885Z,9.78
2019-02-23T04:02:41.477Z,10.40
2019-02-23T04:05:21.726Z,9.90
2019-02-23T04:08:02.554Z,10.63
2019-02-23T04:10:42.035Z,9.43
2019-02-23T04:13:21.939Z,10.93
2019-02-23T04:18:41.386Z,10.63
2019-02-23T04:21:21.407Z,9.58
2019-02-23T04:24:01.244Z,11.70
2019-02-23T04:26:41.129Z,11.10
2019-02-23T04:29:21.204Z,11.65
2019-02-23T04:32:01.163Z,11.53
2019-02-23T04:34:41.128Z,9.18
2019-02-23T04:37:21.314Z,12.63
2019-02-23T04:40:01.577Z,13.53
2019-02-23T04:42:41.262Z,12.05
2019-02-23T04:45:21.026Z,13.68
2019-02-23T04:48:01.145Z,12.23
2019-02-23T04:50:41.341Z,13.13
2019-02-23T04:53:22.394Z,14.15
2019-02-23T04:56:02.488Z,13.08
2019-02-23T04:58:42.551Z,12.58
2019-02-23T05:01:22.631Z,12.47
2019-02-23T05:04:02.864Z,13.75
2019-02-23T05:09:32.225Z,13.15
2019-02-23T05:15:01.694Z,14.20
2019-02-23T05:17:41.229Z,12.70
2019-02-23T05:20:21.258Z,12.80
2019-02-23T05:23:01.133Z,13.25
2019-02-23T05:25:41.387Z,12.37
2019-02-23T05:28:21.558Z,11.85
2019-02-23T05:31:01.571Z,13.78
2019-02-23T05:33:42.017Z,12.55
2019-02-23T05:36:21.984Z,13.50
2019-02-23T05:39:02.053Z,12.90
2019-02-23T05:41:46.978Z,14.38
2019-02-23T05:44:27.367Z,13.38
2019-02-23T05:47:07.413Z,13.78
2019-02-23T05:49:47.617Z,13.22
2019-02-23T05:52:27.647Z,14.80
2019-02-23T05:55:08.285Z,12.82
2019-02-23T05:57:48.163Z,13.25
2019-02-23T06:00:27.895Z,14.65
2019-02-23T06:03:11.131Z,13.43
2019-02-23T06:05:50.877Z,13.85
2019-02-23T06:08:30.954Z,14.33
2019-02-23T06:11:11.112Z,13.80
2019-02-23T06:13:51.520Z,13.65
2019-02-23T06:16:31.570Z,15.45
2019-02-23T06:19:11.492Z,14.60
2019-02-23T06:21:54.028Z,13.88
2019-02-23T06:24:35.594Z,15.90
2019-02-23T06:27:15.303Z,14.80
2019-02-23T06:29:56.890Z,15.18
2019-02-23T06:32:37.991Z,16.45
2019-02-23T06:35:17.627Z,13.60
2019-02-23T06:37:57.720Z,14.98
2019-02-23T06:40:37.755Z,14.90
2019-02-23T06:43:18.292Z,13.72
2019-02-23T06:45:58.232Z,14.10
2019-02-23T06:48:38.199Z,13.98
2019-02-23T06:51:18.438Z,16.55
2019-02-23T06:53:58.378Z,14.55
2019-02-23T06:56:38.757Z,14.93
2019-02-23T06:59:19.268Z,17.27
2019-02-23T07:01:59.137Z,17.17
2019-02-23T07:04:39.113Z,14.60
2019-02-23T07:07:18.948Z,15.93
2019-02-23T07:09:59.192Z,15.75
2019-02-23T07:12:39.589Z,15.38
2019-02-23T07:15:19.427Z,15.63
2019-02-23T07:17:59.455Z,14.18
2019-02-23T07:20:44.226Z,14.45
2019-02-23T07:23:21.674Z,16.97
2019-02-23T07:26:01.940Z,15.95
2019-02-23T07:28:41.741Z,12.35
2019-02-23T07:31:22.035Z,14.18
2019-02-23T07:34:02.082Z,13.72
2019-02-23T07:36:41.901Z,13.90
2019-02-23T07:39:22.105Z,14.73
2019-02-23T07:42:02.385Z,15.40
2019-02-23T07:44:42.556Z,15.30
2019-02-23T07:47:23.188Z,14.25
2019-02-23T07:50:05.053Z,13.50
2019-02-23T07:52:33.215Z,15.00
2019-02-23T07:55:20.012Z,14.20
2019-02-23T07:58:01.709Z,13.30
2019-02-23T08:00:41.791Z,13.93
2019-02-23T08:03:21.809Z,13.78
2019-02-23T08:06:02.003Z,13.27
2019-02-23T08:08:41.756Z,12.70
2019-02-23T08:11:22.099Z,13.73
2019-02-23T08:14:02.120Z,13.73
2019-02-23T08:16:41.541Z,12.77
2019-02-23T08:19:22.675Z,13.67
2019-02-23T08:22:02.940Z,13.63
2019-02-23T08:24:43.331Z,12.40
2019-02-23T08:33:44.421Z,12.27
2019-02-23T08:36:24.317Z,13.20
2019-02-23T08:39:04.235Z,13.77
2019-02-23T08:41:46.323Z,12.67
2019-02-23T08:44:26.832Z,11.13
2019-02-23T08:47:06.735Z,11.73
2019-02-23T08:49:46.440Z,12.63
2019-02-23T08:52:26.823Z,11.30
2019-02-23T08:55:06.755Z,12.50
2019-02-23T08:57:47.096Z,10.60
2019-02-23T09:00:27.133Z,11.63
2019-02-23T09:03:07.459Z,10.27
2019-02-23T09:05:47.345Z,12.10
2019-02-23T09:08:27.253Z,10.47
2019-02-23T09:11:07.559Z,12.87
2019-02-23T09:13:47.526Z,11.83
2019-02-23T09:16:27.831Z,12.83
2019-02-23T09:19:07.758Z,10.90
2019-02-23T09:21:47.656Z,11.00
2019-02-23T09:24:28.197Z,11.20
2019-02-23T09:27:08.045Z,12.57
2019-02-23T09:29:47.669Z,12.10
2019-02-23T09:32:27.795Z,11.57
2019-02-23T09:35:07.775Z,11.57
2019-02-23T09:37:48.553Z,12.30
2019-02-23T09:40:28.894Z,11.33
2019-02-23T09:43:09.111Z,11.30
2019-02-23T09:45:48.500Z,12.33
2019-02-23T09:48:28.829Z,11.83
2019-02-23T09:51:08.881Z,12.00
2019-02-23T09:53:49.087Z,11.50
2019-02-23T09:56:29.437Z,12.10
2019-02-23T10:01:49.378Z,12.90
2019-02-23T10:04:30.060Z,11.80
2019-02-23T10:07:10.493Z,11.07
2019-02-23T10:09:50.273Z,14.23
2019-02-23T10:12:31.154Z,11.90
2019-02-23T10:15:11.202Z,11.90
2019-02-23T10:17:51.956Z,10.47
2019-02-23T10:20:32.326Z,10.90
2019-02-23T10:23:21.549Z,12.20
2019-02-23T10:25:54.672Z,10.80
2019-02-23T10:28:34.526Z,11.30
2019-02-23T10:31:14.518Z,10.30
2019-02-23T10:33:54.562Z,11.70
2019-02-23T10:36:34.427Z,11.57
2019-02-23T10:39:14.308Z,11.90
2019-02-23T10:41:54.142Z,11.20
2019-02-23T10:44:34.304Z,12.00
2019-02-23T10:47:14.151Z,11.93
2019-02-23T10:49:54.984Z,9.70
2019-02-23T10:52:34.532Z,10.07
2019-02-23T10:55:14.717Z,10.60
2019-02-23T10:57:55.918Z,11.90
2019-02-23T11:00:35.919Z,11.30
2019-02-23T11:03:15.962Z,12.30
2019-02-23T11:05:56.262Z,11.63
2019-02-23T11:08:36.455Z,11.70
2019-02-23T11:11:16.472Z,12.50
2019-02-23T11:13:57.060Z,11.63
2019-02-23T11:16:36.591Z,11.30
2019-02-23T11:19:16.596Z,11.97
2019-02-23T11:21:56.694Z,12.57
2019-02-23T11:24:37.089Z,13.60
2019-02-23T11:27:17.215Z,11.47
2019-02-23T11:29:57.508Z,10.63
2019-02-23T11:32:36.996Z,11.17
2019-02-23T11:35:17.584Z,9.67
2019-02-23T11:37:58.607Z,11.50
2019-02-23T11:40:39.061Z,10.90
2019-02-23T11:43:18.979Z,11.43
2019-02-23T11:45:58.947Z,8.43
2019-02-23T11:48:39.477Z,10.07
2019-02-23T11:51:19.092Z,10.23
2019-02-23T11:53:59.573Z,9.43
2019-02-23T11:56:39.195Z,10.10
2019-02-23T11:59:19.287Z,10.73
2019-02-23T12:01:59.380Z,10.40
2019-02-23T12:04:39.149Z,8.80
2019-02-23T12:07:19.566Z,9.63
2019-02-23T12:09:59.312Z,10.53
2019-02-23T12:12:39.723Z,9.93
2019-02-23T12:15:19.734Z,9.80
2019-02-23T12:17:59.868Z,10.83
2019-02-23T12:20:39.875Z,7.33
2019-02-23T12:23:20.070Z,10.93
2019-02-23T12:25:59.878Z,7.87
2019-02-23T12:28:39.888Z,8.53
2019-02-23T12:31:19.786Z,8.43
2019-02-23T12:34:00.482Z,8.03
2019-02-23T12:36:40.262Z,8.87
2019-02-23T12:39:20.581Z,9.23
2019-02-23T12:44:46.993Z,8.47
2019-02-23T12:47:28.048Z,10.50
2019-02-23T12:50:11.922Z,9.23
2019-02-23T12:52:52.157Z,8.03
2019-02-23T12:58:12.586Z,8.70
2019-02-23T13:00:52.350Z,7.63
2019-02-23T13:03:32.731Z,8.10
2019-02-23T13:06:12.338Z,7.13
2019-02-23T13:08:53.068Z,7.10
2019-02-23T13:11:33.182Z,7.10
2019-02-23T13:14:13.712Z,6.37
2019-02-23T13:16:53.603Z,6.77
2019-02-23T13:19:33.700Z,9.53
2019-02-23T13:22:13.598Z,7.50
2019-02-23T13:24:53.562Z,8.23
2019-02-23T13:27:33.860Z,7.40
2019-02-23T13:30:14.246Z,8.43
2019-02-23T13:32:54.583Z,7.43
2019-02-23T13:35:34.763Z,5.90
2019-02-23T13:38:14.669Z,7.77
2019-02-23T13:40:54.656Z,8.10
2019-02-23T13:43:34.907Z,9.37
2019-02-23T13:46:15.238Z,9.90
2019-02-23T13:48:54.899Z,8.40
2019-02-23T13:51:34.651Z,7.40
2019-02-23T13:54:14.923Z,7.80
2019-02-23T13:56:54.944Z,8.93
2019-02-23T13:59:34.919Z,8.47
2019-02-23T14:02:15.303Z,8.57
2019-02-23T14:04:55.700Z,8.30
2019-02-23T14:07:35.354Z,7.60
2019-02-23T14:10:15.108Z,7.90
2019-02-23T14:12:55.083Z,8.90
2019-02-23T14:15:35.333Z,8.20
2019-02-23T14:18:15.282Z,8.13
2019-02-23T14:20:55.199Z,9.57
2019-02-23T14:23:35.639Z,8.33
2019-02-23T14:26:15.679Z,8.60
2019-02-23T14:28:56.233Z,8.70
2019-02-23T14:31:55.244Z,7.20
2019-02-23T14:38:27.333Z,8.93
2019-02-23T14:41:10.941Z,8.57
2019-02-23T14:43:50.438Z,8.80
2019-02-23T14:46:30.570Z,7.63
2019-02-23T14:49:10.775Z,8.37
2019-02-23T14:51:50.782Z,5.90
2019-02-23T14:54:30.701Z,8.03
2019-02-23T14:57:10.480Z,7.87
2019-02-23T14:59:50.730Z,8.70
2019-02-23T15:02:30.932Z,8.43
2019-02-23T15:05:10.819Z,8.27
2019-02-23T15:07:51.449Z,8.37
2019-02-23T15:10:32.037Z,7.93
2019-02-23T15:13:11.449Z,7.80
2019-02-23T15:15:51.944Z,7.83
2019-02-23T15:18:31.996Z,8.13
2019-02-23T15:21:12.082Z,7.73
2019-02-23T15:23:52.012Z,8.63
2019-02-23T15:26:32.229Z,7.83
2019-02-23T15:29:12.424Z,8.30
2019-02-23T15:31:53.358Z,7.50
2019-02-23T15:34:33.729Z,7.00
2019-02-23T15:37:13.743Z,8.07
2019-02-23T15:39:53.630Z,7.43
2019-02-23T15:42:33.841Z,7.70
2019-02-23T15:45:14.734Z,8.10
2019-02-23T15:47:54.495Z,7.40
2019-02-23T15:50:34.110Z,6.40
2019-02-23T15:53:14.295Z,6.80
2019-02-23T15:55:54.368Z,7.93
2019-02-23T15:58:34.395Z,7.40
2019-02-23T16:01:14.405Z,8.07
2019-02-23T16:03:54.225Z,8.00
2019-02-23T16:06:34.143Z,6.80
2019-02-23T16:09:14.240Z,8.47
2019-02-23T16:11:54.255Z,8.37
2019-02-23T16:14:34.241Z,8.53
2019-02-23T16:17:14.021Z,9.17
2019-02-23T16:19:54.272Z,7.53
2019-02-23T16:22:34.160Z,8.80
2019-02-23T16:25:14.169Z,9.10
2019-02-23T16:27:54.476Z,7.90
2019-02-23T16:30:34.360Z,9.43
2019-02-23T16:35:59.888Z,8.87
2019-02-23T16:38:40.173Z,8.40
2019-02-23T16:41:20.266Z,8.87
2019-02-23T16:44:01.581Z,8.13
2019-02-23T16:46:41.424Z,7.50
2019-02-23T16:49:21.583Z,8.90
2019-02-23T16:52:01.579Z,8.77
2019-02-23T16:54:41.615Z,8.13
2019-02-23T16:57:21.647Z,8.63
2019-02-23T17:00:01.707Z,9.60
2019-02-23T17:02:49.685Z,8.70
2019-02-23T17:05:29.316Z,8.73
2019-02-23T17:08:09.346Z,8.10
2019-02-23T17:13:29.648Z,8.03
2019-02-23T17:16:09.568Z,9.10
2019-02-23T17:18:49.633Z,7.90
2019-02-23T17:21:29.309Z,8.07
2019-02-23T17:24:09.508Z,9.27
2019-02-23T17:26:49.799Z,9.00
2019-02-23T17:29:29.472Z,8.20
2019-02-23T17:32:09.745Z,8.23
2019-02-23T17:34:53.008Z,8.70
2019-02-23T17:37:33.754Z,8.18
2019-02-23T17:40:15.173Z,8.60
2019-02-23T17:42:55.162Z,8.53
2019-02-23T17:45:35.704Z,9.10
2019-02-23T17:48:15.443Z,7.75
2019-02-23T17:50:55.375Z,9.58
2019-02-23T17:53:35.234Z,7.90
2019-02-23T17:56:15.524Z,8.83
2019-02-23T17:58:55.577Z,9.70
2019-02-23T18:01:35.763Z,8.78
2019-02-23T18:04:15.760Z,7.95
2019-02-23T18:06:55.917Z,8.33
2019-02-23T18:09:35.653Z,9.30
2019-02-23T18:12:15.875Z,9.48
2019-02-23T18:14:56.037Z,7.92
2019-02-23T18:17:35.688Z,8.75
2019-02-23T18:20:16.749Z,9.55
2019-02-23T18:22:56.874Z,9.13
2019-02-23T18:25:37.476Z,9.30
2019-02-23T18:28:17.572Z,8.40
2019-02-23T18:30:57.571Z,9.28
2019-02-23T18:33:38.198Z,8.85
2019-02-23T18:36:19.855Z,8.03
2019-02-23T18:38:59.565Z,9.43
2019-02-23T18:41:39.720Z,7.80
2019-02-23T18:44:20.219Z,7.92
2019-02-23T18:47:00.919Z,9.48
2019-02-23T18:49:41.911Z,10.05
2019-02-23T18:52:21.853Z,9.53
2019-02-23T18:55:03.610Z,8.70
2019-02-23T18:57:45.352Z,9.30
2019-02-23T19:00:25.319Z,9.30
2019-02-23T19:03:05.467Z,8.53
2019-02-23T19:05:49.849Z,9.63
2019-02-23T19:08:27.439Z,9.25
2019-02-23T19:11:07.477Z,9.55
2019-02-23T19:13:47.656Z,9.33
2019-02-23T19:16:27.313Z,10.08
2019-02-23T19:19:07.399Z,9.93
2019-02-23T19:21:48.704Z,9.80
2019-02-23T19:24:29.250Z,10.70
2019-02-23T19:27:09.175Z,10.18
2019-02-23T19:29:49.309Z,10.00
2019-02-23T19:32:29.312Z,10.38
2019-02-23T19:35:09.384Z,10.18
2019-02-23T19:37:49.039Z,10.38
2019-02-23T19:40:29.218Z,10.30
2019-02-23T19:43:09.418Z,10.13
2019-02-23T19:45:49.582Z,10.78
2019-02-23T19:48:29.467Z,11.75
2019-02-23T19:51:09.405Z,11.12
2019-02-23T19:53:49.764Z,11.08
2019-02-23T19:56:30.017Z,9.85
2019-02-23T19:59:10.508Z,9.63
2019-02-23T20:01:50.534Z,11.93
2019-02-23T20:04:30.690Z,14.25
2019-02-23T20:09:50.805Z,13.55
2019-02-23T20:12:30.537Z,13.38
2019-02-23T20:15:11.155Z,13.40
2019-02-23T20:17:52.108Z,15.88
2019-02-23T20:20:32.861Z,11.70
2019-02-23T20:23:12.778Z,11.40
2019-02-23T20:25:54.163Z,11.28
2019-02-23T20:28:34.129Z,11.53
2019-02-23T20:31:14.230Z,10.53
2019-02-23T20:33:54.333Z,11.85
2019-02-23T20:36:35.389Z,12.37
2019-02-23T20:39:15.840Z,11.70
2019-02-23T20:41:55.778Z,11.85
2019-02-23T20:44:36.232Z,11.75
2019-02-23T20:47:17.392Z,11.50
2019-02-23T20:49:58.499Z,10.38
2019-02-23T20:52:38.165Z,11.53
2019-02-23T20:55:18.479Z,10.00
2019-02-23T20:57:58.628Z,11.05
2019-02-23T21:00:38.626Z,10.75
2019-02-23T21:03:18.935Z,11.28
2019-02-23T21:05:59.184Z,10.48
2019-02-23T21:08:39.006Z,9.68
2019-02-23T21:11:20.538Z,10.25
2019-02-23T21:14:01.591Z,11.00
2019-02-23T21:16:41.553Z,10.63
2019-02-23T21:19:21.718Z,10.75
2019-02-23T21:22:01.635Z,10.82
2019-02-23T21:24:41.665Z,9.18
2019-02-23T21:27:22.039Z,9.48
2019-02-23T21:30:01.899Z,10.75
2019-02-23T21:32:54.777Z,10.53
2019-02-23T21:35:39.335Z,10.43
2019-02-23T21:38:19.083Z,9.85
2019-02-23T21:40:59.131Z,9.55
2019-02-23T21:43:39.401Z,10.65
2019-02-23T21:46:19.295Z,9.60
2019-02-23T21:48:58.917Z,9.58
2019-02-23T21:51:38.411Z,9.80
2019-02-23T21:54:18.443Z,10.38
2019-02-23T21:56:58.301Z,10.45
2019-02-23T21:59:38.506Z,10.90
2019-02-23T22:02:18.572Z,9.63
2019-02-23T22:04:59.920Z,11.45
2019-02-23T22:07:39.293Z,12.45
2019-02-23T22:10:19.340Z,11.20
2019-02-23T22:12:59.702Z,11.28
2019-02-23T22:15:40.138Z,10.85
2019-02-23T22:18:20.001Z,10.30
2019-02-23T22:20:59.870Z,9.65
2019-02-23T22:23:39.985Z,12.28
2019-02-23T22:26:19.880Z,10.50
2019-02-23T22:28:59.910Z,11.30
2019-02-23T22:31:40.120Z,11.57
2019-02-23T22:34:20.194Z,11.10
2019-02-23T22:36:59.894Z,12.40
2019-02-23T22:39:40.225Z,11.22
2019-02-23T22:42:20.870Z,11.22
2019-02-23T22:45:01.420Z,11.53
2019-02-23T22:47:42.238Z,11.85
2019-02-23T22:50:22.820Z,12.00
2019-02-23T22:55:43.477Z,10.85
2019-02-23T22:58:11.025Z,10.98
2019-02-23T23:01:01.454Z,11.45
2019-02-23T23:03:43.447Z,10.58
2019-02-23T23:06:23.053Z,11.75
2019-02-23T23:09:03.179Z,11.30
2019-02-23T23:11:44.834Z,11.60
2019-02-23T23:14:25.477Z,11.20
2019-02-23T23:17:07.047Z,10.82
2019-02-23T23:19:47.419Z,11.68
2019-02-23T23:22:28.169Z,11.10
2019-02-23T23:25:08.028Z,11.08
2019-02-23T23:27:49.505Z,11.50
2019-02-23T23:30:30.169Z,11.73
2019-02-23T23:33:09.986Z,11.08
2019-02-23T23:35:49.840Z,11.63
2019-02-23T23:38:28.031Z,11.50
2019-02-23T23:41:14.840Z,12.33
2019-02-23T23:43:54.233Z,10.98
2019-02-23T23:46:35.179Z,10.78
2019-02-23T23:49:14.945Z,12.28
2019-02-23T23:51:54.692Z,10.63
2019-02-23T23:54:34.595Z,9.60
2019-02-23T23:57:15.013Z,9.90
2019-02-23T23:59:54.985Z,10.48
